Time;durP1;ratioP1;P1;durP2;ratioP2;P2;SDS_P1;SDS_P2;PMS_P1;PMS_P2;Temp;Humidity;BMP_temperature;BMP_pressure;BME280_temperature;BME280_humidity;BME280_pressure;Samples;Min_cycle;Max_cycle;Signal;HPM_P1;HPM_P2
2022/07/13 00:00:11;;;;;;;0.80;0.60;;;17.30;99.90;;;;;;5010426;28;20196;-75
2022/07/13 00:02:37;;;;;;;1.50;0.80;;;17.30;99.90;;;;;;5010443;28;20189;-75
2022/07/13 00:05:03;;;;;;;1.03;0.60;;;17.30;99.90;;;;;;5010435;28;20901;-75
2022/07/13 00:07:29;;;;;;;4.17;1.20;;;17.20;99.90;;;;;;4992489;28;20223;-75
2022/07/13 00:09:55;;;;;;;1.43;0.80;;;17.20;99.90;;;;;;4992645;28;20427;-75
2022/07/13 00:12:20;;;;;;;1.50;0.60;;;17.10;99.90;;;;;;5010120;28;20181;-75
2022/07/13 00:14:46;;;;;;;1.40;0.90;;;17.10;99.90;;;;;;5009607;28;20188;-74
2022/07/13 00:17:11;;;;;;;0.90;0.60;;;17.10;99.90;;;;;;4975745;28;20221;-75
2022/07/13 00:19:37;;;;;;;1.00;0.90;;;17.00;99.90;;;;;;4991884;28;20193;-75
2022/07/13 00:22:03;;;;;;;1.10;0.73;;;17.00;99.90;;;;;;5009475;28;20269;-75
2022/07/13 00:24:28;;;;;;;1.87;0.60;;;16.90;99.90;;;;;;4975638;28;20231;-75
2022/07/13 00:26:54;;;;;;;1.03;0.57;;;16.90;99.90;;;;;;5009369;28;20232;-75
2022/07/13 00:29:19;;;;;;;1.20;0.73;;;16.80;99.90;;;;;;4991724;28;20649;-75
2022/07/13 00:31:46;;;;;;;1.53;0.60;;;16.80;99.90;;;;;;4991490;28;20184;-75
2022/07/13 00:34:13;;;;;;;0.90;0.70;;;16.70;99.90;;;;;;5009251;28;20184;-73
2022/07/13 00:36:38;;;;;;;1.00;0.77;;;16.60;99.90;;;;;;5009239;28;20426;-74
2022/07/13 00:39:04;;;;;;;2.07;0.80;;;16.50;99.90;;;;;;4991315;28;20955;-74
2022/07/13 00:41:30;;;;;;;1.70;0.70;;;16.50;99.90;;;;;;4991352;28;20195;-74
2022/07/13 00:44:11;;;;;;;1.23;1.00;;;16.40;99.90;;;;;;5008916;28;20746;-74
2022/07/13 00:46:39;;;;;;;1.40;0.80;;;16.40;99.90;;;;;;4991034;28;20212;-74
2022/07/13 00:49:05;;;;;;;3.10;1.00;;;16.30;99.90;;;;;;5009331;28;20574;-73
2022/07/13 00:51:31;;;;;;;1.93;0.90;;;16.30;99.90;;;;;;5008945;28;20502;-73
2022/07/13 00:53:57;;;;;;;1.50;0.70;;;16.30;99.90;;;;;;4993201;28;20324;-73
2022/07/13 00:56:24;;;;;;;1.37;0.90;;;16.30;99.90;;;;;;5008877;28;20249;-73
2022/07/13 00:58:50;;;;;;;1.67;0.80;;;16.30;99.90;;;;;;4991390;28;20907;-73
2022/07/13 01:01:16;;;;;;;1.53;0.77;;;16.20;99.90;;;;;;5008908;28;20422;-73
2022/07/13 01:03:42;;;;;;;3.47;0.70;;;16.20;99.90;;;;;;5008785;28;20422;-73
2022/07/13 01:06:08;;;;;;;0.90;0.77;;;16.10;99.90;;;;;;5008953;28;20445;-74
2022/07/13 01:08:35;;;;;;;0.90;0.80;;;16.10;99.90;;;;;;4991022;28;20330;-73
2022/07/13 01:11:01;;;;;;;1.03;0.77;;;16.00;99.90;;;;;;4991200;28;20184;-75
2022/07/13 01:13:27;;;;;;;1.80;1.00;;;16.10;99.90;;;;;;5008636;28;20414;-76
2022/07/13 01:15:53;;;;;;;2.27;0.80;;;16.10;99.90;;;;;;5008667;28;20480;-75
2022/07/13 01:18:19;;;;;;;0.80;0.50;;;16.00;99.90;;;;;;4990995;28;20455;-75
2022/07/13 01:20:45;;;;;;;0.80;0.70;;;16.00;99.90;;;;;;5008698;28;20513;-75
2022/07/13 01:23:12;;;;;;;3.33;0.60;;;15.90;99.90;;;;;;5008848;28;20660;-75
2022/07/13 01:25:39;;;;;;;1.70;0.70;;;15.90;99.90;;;;;;4990826;28;20975;-74
2022/07/13 01:28:05;;;;;;;1.00;0.60;;;15.80;99.90;;;;;;5008648;28;20461;-76
2022/07/13 01:30:30;;;;;;;1.17;0.87;;;15.70;99.90;;;;;;4990882;28;20417;-75
2022/07/13 01:32:56;;;;;;;1.43;0.90;;;15.70;99.90;;;;;;4990839;28;20556;-75
2022/07/13 01:35:23;;;;;;;0.90;0.70;;;15.70;99.90;;;;;;5008454;28;20183;-75
2022/07/13 01:37:50;;;;;;;0.90;0.70;;;15.50;99.90;;;;;;5008728;28;20187;-74
2022/07/13 01:40:16;;;;;;;0.80;0.60;;;15.40;99.90;;;;;;5008473;28;20492;-73
2022/07/13 01:42:52;;;;;;;4.63;0.70;;;15.40;99.90;;;;;;5008610;28;20426;-73
2022/07/13 01:45:19;;;;;;;1.00;0.80;;;15.40;99.90;;;;;;5008640;28;20433;-73
2022/07/13 01:47:47;;;;;;;1.63;0.80;;;15.50;99.90;;;;;;5008308;28;20600;-73
2022/07/13 01:50:14;;;;;;;1.87;0.67;;;15.50;99.90;;;;;;5008598;28;20442;-73
2022/07/13 01:52:41;;;;;;;0.83;0.73;;;15.50;99.90;;;;;;5008657;28;20422;-73
2022/07/13 01:55:08;;;;;;;1.30;0.83;;;15.50;99.90;;;;;;4991126;28;20433;-73
2022/07/13 01:57:35;;;;;;;5.60;0.90;;;15.50;99.90;;;;;;4992910;28;20444;-73
2022/07/13 02:00:06;;;;;;;1.17;1.00;;;15.50;99.90;;;;;;5012482;28;20423;-73
2022/07/13 02:02:32;;;;;;;1.00;0.77;;;15.50;99.90;;;;;;4995275;28;20435;-73
2022/07/13 02:04:57;;;;;;;2.07;0.90;;;15.50;99.90;;;;;;5012671;28;21044;-73
2022/07/13 02:07:23;;;;;;;1.10;0.80;;;15.50;99.90;;;;;;5012481;28;20258;-73
2022/07/13 02:09:49;;;;;;;1.90;0.83;;;15.50;99.90;;;;;;4994794;28;20182;-75
2022/07/13 02:12:16;;;;;;;5.47;1.07;;;15.60;99.90;;;;;;5012362;28;20560;-76
2022/07/13 02:14:42;;;;;;;1.10;0.90;;;15.60;99.90;;;;;;5012537;28;20910;-75
2022/07/13 02:17:08;;;;;;;1.00;0.70;;;15.60;99.90;;;;;;4994659;28;20441;-75
2022/07/13 02:19:33;;;;;;;3.10;0.80;;;15.50;99.90;;;;;;4994318;28;20197;-75
2022/07/13 02:21:59;;;;;;;1.20;0.73;;;15.50;99.90;;;;;;4994233;28;20568;-75
2022/07/13 02:24:24;;;;;;;1.50;0.87;;;15.50;99.90;;;;;;5011831;28;20187;-75
2022/07/13 02:26:50;;;;;;;1.23;0.80;;;15.40;99.90;;;;;;5011542;28;20243;-75
2022/07/13 02:29:16;;;;;;;0.90;0.80;;;15.40;99.90;;;;;;5011855;28;20296;-75
2022/07/13 02:31:42;;;;;;;2.30;0.97;;;15.40;99.90;;;;;;5011751;28;20876;-75
2022/07/13 02:34:08;;;;;;;1.63;0.90;;;15.40;99.90;;;;;;5011756;28;20211;-75
2022/07/13 02:36:33;;;;;;;3.67;0.90;;;15.40;99.90;;;;;;4977765;28;20302;-75
2022/07/13 02:38:59;;;;;;;1.20;0.90;;;15.50;99.90;;;;;;4994322;28;20229;-75
2022/07/13 02:41:25;;;;;;;0.90;0.80;;;15.40;99.90;;;;;;5012524;28;20863;-75
2022/07/13 02:43:50;;;;;;;2.60;1.00;;;15.40;99.90;;;;;;5013428;28;20674;-75
2022/07/13 02:46:17;;;;;;;3.53;1.00;;;15.30;99.90;;;;;;5014880;28;20294;-75
2022/07/13 02:48:43;;;;;;;1.30;0.93;;;15.30;99.90;;;;;;5019938;28;21000;-74
2022/07/13 02:51:08;;;;;;;0.90;0.77;;;15.30;99.90;;;;;;5031753;28;20194;-73
2022/07/13 02:53:34;;;;;;;0.97;0.87;;;15.40;99.90;;;;;;5020223;28;20215;-73
2022/07/13 02:55:59;;;;;;;1.37;0.90;;;15.40;99.90;;;;;;5037143;28;20214;-73
2022/07/13 02:58:25;;;;;;;1.73;0.70;;;15.40;99.90;;;;;;5020345;28;20183;-73
2022/07/13 03:00:51;;;;;;;1.57;1.00;;;15.30;99.90;;;;;;5034437;28;20189;-73
2022/07/13 03:03:17;;;;;;;3.23;1.00;;;15.40;99.90;;;;;;5034138;28;20191;-73
2022/07/13 03:05:42;;;;;;;1.63;1.00;;;15.40;99.90;;;;;;5020021;28;20458;-74
2022/07/13 03:08:08;;;;;;;2.13;0.93;;;15.40;99.90;;;;;;5018129;28;20219;-73
2022/07/13 03:10:33;;;;;;;0.93;0.83;;;15.30;99.90;;;;;;5012573;28;20301;-73
2022/07/13 03:12:59;;;;;;;1.00;0.83;;;15.00;99.90;;;;;;5011887;28;20223;-73
2022/07/13 03:15:25;;;;;;;1.10;1.00;;;14.90;99.90;;;;;;5011977;28;20273;-72
2022/07/13 03:17:50;;;;;;;2.67;0.67;;;14.80;99.90;;;;;;5011403;28;20198;-72
2022/07/13 03:20:16;;;;;;;3.53;1.00;;;14.80;99.90;;;;;;4993690;28;20190;-72
2022/07/13 03:22:42;;;;;;;5.70;1.53;;;14.70;99.90;;;;;;4993115;28;20192;-73
2022/07/13 03:25:08;;;;;;;1.00;0.90;;;14.80;99.90;;;;;;5010846;28;20203;-72
2022/07/13 03:27:34;;;;;;;0.80;0.80;;;15.00;99.90;;;;;;5010425;28;20219;-72
2022/07/13 03:30:00;;;;;;;3.23;0.90;;;15.30;99.90;;;;;;5010605;28;20922;-72
2022/07/13 03:32:25;;;;;;;1.27;1.10;;;15.70;99.90;;;;;;5010606;28;20183;-72
2022/07/13 03:34:51;;;;;;;2.20;0.70;;;16.00;99.90;;;;;;5010346;28;20191;-72
2022/07/13 03:37:17;;;;;;;2.73;0.90;;;16.30;99.90;;;;;;5010302;28;20210;-72
2022/07/13 03:39:43;;;;;;;3.37;0.77;;;16.40;99.90;;;;;;4992278;28;20210;-72
2022/07/13 03:42:09;;;;;;;1.30;0.93;;;16.60;99.90;;;;;;5010226;28;20961;-73
2022/07/13 03:44:34;;;;;;;1.20;0.90;;;16.10;99.90;;;;;;5010505;28;20661;-73
2022/07/13 03:47:00;;;;;;;6.60;1.30;;;15.90;99.90;;;;;;5009846;28;20226;-74
2022/07/13 03:49:26;;;;;;;1.40;1.00;;;15.70;99.90;;;;;;4975979;28;20701;-73
2022/07/13 03:51:51;;;;;;;2.87;0.90;;;15.60;99.90;;;;;;5010164;28;20271;-75
2022/07/13 03:54:17;;;;;;;2.90;1.00;;;15.50;99.90;;;;;;4992976;28;20426;-75
2022/07/13 03:56:43;;;;;;;1.20;1.03;;;15.40;99.90;;;;;;5010312;28;20211;-75
2022/07/13 03:59:09;;;;;;;2.43;0.93;;;15.40;99.90;;;;;;5010021;28;20191;-76
2022/07/13 04:01:34;;;;;;;4.53;1.23;;;15.30;99.90;;;;;;5010103;28;20637;-75
2022/07/13 04:04:00;;;;;;;7.27;1.10;;;15.10;99.90;;;;;;5010556;28;20194;-75
2022/07/13 04:06:25;;;;;;;1.80;1.70;;;15.00;99.90;;;;;;5010418;28;20206;-75
2022/07/13 04:08:51;;;;;;;2.30;0.97;;;14.90;99.90;;;;;;5010245;28;20218;-75
2022/07/13 04:11:17;;;;;;;2.07;1.30;;;14.80;99.90;;;;;;5009237;28;20183;-75
2022/07/13 04:13:44;;;;;;;2.40;1.03;;;14.80;99.90;;;;;;4990645;28;20482;-76
2022/07/13 04:16:09;;;;;;;1.70;0.97;;;14.90;99.90;;;;;;5008537;28;20284;-76
2022/07/13 04:18:35;;;;;;;1.20;1.10;;;14.90;99.90;;;;;;5008448;28;20517;-76
2022/07/13 04:21:01;;;;;;;2.63;1.20;;;15.00;99.90;;;;;;4990363;28;20657;-76
2022/07/13 04:23:30;;;;;;;1.87;1.00;;;14.90;99.90;;;;;;5008626;28;20483;-78
2022/07/13 04:25:57;;;;;;;1.03;0.93;;;14.90;99.90;;;;;;5008511;28;20958;-76
2022/07/13 04:28:23;;;;;;;1.10;1.00;;;15.00;99.90;;;;;;5008395;28;21345;-76
2022/07/13 04:30:50;;;;;;;3.33;1.10;;;15.10;99.90;;;;;;5008595;28;20513;-76
2022/07/13 04:33:15;;;;;;;5.90;1.20;;;15.30;99.90;;;;;;5008518;28;20513;-76
2022/07/13 04:35:41;;;;;;;1.27;1.17;;;15.20;99.90;;;;;;4990660;28;20880;-75
2022/07/13 04:38:07;;;;;;;2.70;1.40;;;15.40;99.90;;;;;;4990944;28;20195;-76
2022/07/13 04:40:32;;;;;;;2.50;1.13;;;15.30;99.90;;;;;;4990859;28;21000;-76
2022/07/13 04:42:58;;;;;;;1.10;1.00;;;15.40;99.90;;;;;;5008528;28;20189;-76
2022/07/13 04:45:23;;;;;;;1.57;1.10;;;15.30;99.90;;;;;;5008511;28;20191;-76
2022/07/13 04:47:49;;;;;;;1.30;1.10;;;15.20;99.90;;;;;;4991234;28;20210;-76
2022/07/13 04:50:15;;;;;;;0.90;0.77;;;15.20;99.90;;;;;;4992502;28;20182;-76
2022/07/13 04:52:41;;;;;;;1.93;1.00;;;15.30;99.90;;;;;;4991546;28;20187;-76
2022/07/13 04:55:07;;;;;;;4.73;1.17;;;15.30;99.90;;;;;;5008456;28;20420;-77
2022/07/13 04:57:33;;;;;;;2.27;1.23;;;15.40;99.90;;;;;;5007933;28;20210;-76
2022/07/13 04:59:59;;;;;;;5.33;1.00;;;15.40;99.90;;;;;;5008272;28;20910;-76
2022/07/13 05:02:24;;;;;;;0.97;0.80;;;15.60;99.90;;;;;;4990999;28;20481;-77
2022/07/13 05:04:50;;;;;;;2.63;1.10;;;15.80;99.90;;;;;;4990262;28;20273;-77
2022/07/13 05:07:16;;;;;;;1.60;0.97;;;15.90;99.90;;;;;;5008059;28;20211;-77
2022/07/13 05:09:41;;;;;;;0.97;0.67;;;16.10;99.90;;;;;;5008208;28;20214;-77
2022/07/13 05:12:07;;;;;;;1.00;0.90;;;16.20;99.90;;;;;;5008344;28;20259;-77
2022/07/13 05:14:35;;;;;;;1.10;0.90;;;16.40;99.90;;;;;;5008324;28;20256;-77
2022/07/13 05:17:01;;;;;;;1.70;0.90;;;16.60;99.90;;;;;;4990881;28;20203;-77
2022/07/13 05:19:26;;;;;;;3.33;1.10;;;16.70;99.90;;;;;;5008693;28;20437;-77
2022/07/13 05:21:52;;;;;;;1.23;0.90;;;16.90;99.90;;;;;;4990591;28;20935;-77
2022/07/13 05:24:18;;;;;;;3.60;1.40;;;17.10;99.90;;;;;;5007921;28;20658;-77
2022/07/13 05:26:44;;;;;;;1.30;1.20;;;17.30;99.90;;;;;;5007726;28;20455;-77
2022/07/13 05:29:09;;;;;;;3.03;1.20;;;17.40;99.90;;;;;;4974013;28;20238;-77
2022/07/13 05:31:35;;;;;;;1.37;0.90;;;17.50;99.90;;;;;;4990662;28;20198;-77
2022/07/13 05:34:01;;;;;;;1.93;1.40;;;17.50;99.90;;;;;;5011713;28;20750;-77
2022/07/13 05:36:27;;;;;;;1.80;1.20;;;17.60;99.90;;;;;;4993621;28;20219;-77
2022/07/13 05:38:52;;;;;;;8.20;1.10;;;17.60;99.90;;;;;;5011508;28;20442;-77
2022/07/13 05:41:18;;;;;;;6.30;1.17;;;17.70;99.90;;;;;;4993723;28;20194;-77
2022/07/13 05:43:44;;;;;;;2.77;1.20;;;17.90;99.90;;;;;;5011301;28;20276;-77
2022/07/13 05:46:10;;;;;;;1.10;1.00;;;18.00;99.90;;;;;;4993557;28;20895;-76
2022/07/13 05:48:36;;;;;;;2.83;1.10;;;18.00;99.90;;;;;;4993189;28;20315;-77
2022/07/13 05:51:01;;;;;;;1.27;1.00;;;18.20;99.90;;;;;;5011243;28;20189;-77
2022/07/13 05:53:27;;;;;;;1.63;1.03;;;18.30;99.90;;;;;;4993455;28;20192;-77
2022/07/13 05:55:53;;;;;;;5.90;1.07;;;18.50;99.90;;;;;;4993135;28;20594;-77
2022/07/13 05:58:18;;;;;;;3.67;1.20;;;18.50;99.90;;;;;;5010935;28;20263;-76
2022/07/13 06:00:44;;;;;;;1.83;1.00;;;18.70;99.90;;;;;;4977225;28;20193;-76
2022/07/13 06:03:10;;;;;;;2.27;0.90;;;18.80;99.90;;;;;;5010851;28;20201;-76
2022/07/13 06:05:35;;;;;;;2.80;1.00;;;18.70;99.90;;;;;;4993130;28;20193;-76
2022/07/13 06:08:01;;;;;;;2.50;1.10;;;19.10;99.90;;;;;;5010890;28;20225;-77
2022/07/13 06:10:27;;;;;;;1.90;1.10;;;19.10;99.90;;;;;;4992841;28;20193;-77
2022/07/13 06:12:52;;;;;;;1.60;1.30;;;19.10;99.90;;;;;;5010724;28;20185;-76
2022/07/13 06:15:18;;;;;;;2.00;1.20;;;19.20;99.90;;;;;;4992888;28;20612;-76
2022/07/13 06:17:44;;;;;;;1.17;0.93;;;19.20;99.90;;;;;;5010617;28;20228;-76
2022/07/13 06:20:10;;;;;;;1.27;1.00;;;19.40;99.90;;;;;;5010952;28;20200;-76
2022/07/13 06:22:36;;;;;;;1.40;1.30;;;19.50;99.90;;;;;;5010915;28;20596;-76
2022/07/13 06:25:04;;;;;;;2.80;1.00;;;19.50;99.90;;;;;;4992501;28;20469;-76
2022/07/13 06:27:30;;;;;;;1.97;0.90;;;19.60;99.90;;;;;;4992235;28;20315;-76
2022/07/13 06:29:56;;;;;;;2.40;0.90;;;19.60;99.90;;;;;;5010112;28;20564;-76
2022/07/13 06:32:22;;;;;;;2.73;1.03;;;19.60;99.90;;;;;;4992077;28;20188;-76
2022/07/13 06:34:48;;;;;;;5.37;1.10;;;19.80;99.90;;;;;;4991980;28;20817;-76
2022/07/13 06:37:14;;;;;;;1.67;1.10;;;19.90;99.90;;;;;;4991773;28;20693;-76
2022/07/13 06:39:39;;;;;;;1.03;0.93;;;20.00;99.90;;;;;;4975926;28;20706;-76
2022/07/13 06:42:05;;;;;;;1.20;1.03;;;20.10;99.90;;;;;;5009645;28;20562;-76
2022/07/13 06:44:30;;;;;;;2.50;0.90;;;20.30;99.90;;;;;;4975648;28;20216;-76
2022/07/13 06:46:59;;;;;;;2.07;0.90;;;20.30;99.90;;;;;;4992090;28;20208;-77
2022/07/13 06:49:26;;;;;;;4.93;0.90;;;20.50;99.90;;;;;;4992947;28;20201;-78
2022/07/13 06:51:54;;;;;;;2.30;1.30;;;20.60;99.90;;;;;;5009887;28;20426;-78
2022/07/13 06:54:20;;;;;;;5.50;1.10;;;20.70;99.90;;;;;;5010864;28;20420;-78
2022/07/13 06:56:46;;;;;;;6.03;1.23;;;20.90;99.90;;;;;;4993780;28;20621;-78
2022/07/13 06:59:11;;;;;;;2.70;1.00;;;20.90;99.90;;;;;;4993234;28;20276;-78
2022/07/13 07:01:37;;;;;;;1.20;1.10;;;21.10;99.90;;;;;;4993700;28;20185;-78
2022/07/13 07:04:03;;;;;;;1.97;0.97;;;21.10;99.90;;;;;;4993142;28;20253;-78
2022/07/13 07:06:28;;;;;;;2.70;1.10;;;21.20;99.90;;;;;;5010634;28;20280;-78
2022/07/13 07:08:54;;;;;;;2.90;0.90;;;21.30;99.90;;;;;;4992804;28;20383;-78
2022/07/13 07:11:20;;;;;;;1.30;1.07;;;21.30;99.90;;;;;;4993496;28;20189;-78
2022/07/13 07:13:45;;;;;;;3.67;1.10;;;21.40;99.90;;;;;;4976979;28;20193;-78
2022/07/13 07:16:11;;;;;;;1.77;1.00;;;21.40;99.90;;;;;;4992230;28;20706;-78
2022/07/13 07:18:37;;;;;;;2.10;0.90;;;21.40;99.90;;;;;;4975350;28;20787;-79
2022/07/13 07:21:02;;;;;;;2.83;1.50;;;21.60;99.90;;;;;;5009284;28;20177;-78
2022/07/13 07:23:28;;;;;;;1.73;0.97;;;21.50;99.90;;;;;;5009189;28;20190;-78
2022/07/13 07:25:54;;;;;;;3.53;1.37;;;21.60;99.90;;;;;;5008877;28;20718;-78
2022/07/13 07:28:19;;;;;;;1.47;1.30;;;21.70;99.90;;;;;;5009220;28;20713;-78
2022/07/13 07:30:45;;;;;;;1.10;0.80;;;21.70;99.90;;;;;;5009296;28;20276;-78
2022/07/13 07:33:10;;;;;;;2.70;1.37;;;21.70;99.90;;;;;;4991906;28;20189;-78
2022/07/13 07:35:37;;;;;;;3.80;1.13;;;21.80;99.90;;;;;;4991698;28;20192;-78
2022/07/13 07:38:02;;;;;;;4.30;1.40;;;21.80;99.90;;;;;;5009273;28;20662;-78
2022/07/13 07:40:28;;;;;;;1.20;1.03;;;21.90;99.90;;;;;;4975549;28;20578;-78
2022/07/13 07:42:53;;;;;;;1.93;1.10;;;21.90;99.90;;;;;;4975337;28;20627;-78
2022/07/13 07:45:19;;;;;;;6.00;1.30;;;21.80;99.90;;;;;;4991826;28;20205;-78
2022/07/13 07:47:45;;;;;;;1.10;1.00;;;21.80;99.90;;;;;;4992986;28;20213;-78
2022/07/13 07:50:11;;;;;;;1.20;1.10;;;21.90;99.90;;;;;;4976268;28;20189;-78
2022/07/13 07:52:37;;;;;;;1.33;1.03;;;22.00;99.90;;;;;;5010431;28;20178;-78
2022/07/13 07:55:03;;;;;;;4.60;1.43;;;22.10;99.90;;;;;;5009464;28;20417;-78
2022/07/13 07:57:29;;;;;;;1.80;1.20;;;22.20;99.90;;;;;;4992254;28;20247;-78
2022/07/13 07:59:54;;;;;;;1.40;0.93;;;22.30;99.90;;;;;;4992128;28;20463;-78
2022/07/13 08:02:20;;;;;;;2.70;1.20;;;22.60;99.90;;;;;;5009591;28;20567;-78
2022/07/13 08:04:47;;;;;;;1.63;1.27;;;22.80;99.90;;;;;;4991897;28;20197;-78
2022/07/13 08:07:12;;;;;;;3.43;0.67;;;23.00;99.90;;;;;;4975453;28;20230;-78
2022/07/13 08:09:38;;;;;;;4.00;1.43;;;23.10;99.90;;;;;;4991872;28;20773;-78
2022/07/13 08:12:04;;;;;;;3.33;1.00;;;23.30;99.90;;;;;;4992905;28;20194;-78
2022/07/13 08:14:30;;;;;;;2.90;1.10;;;23.30;99.90;;;;;;5015170;28;20633;-78
2022/07/13 08:16:56;;;;;;;5.97;1.57;;;23.50;99.90;;;;;;5016896;28;20449;-78
2022/07/13 08:19:23;;;;;;;1.80;1.03;;;23.60;99.90;;;;;;5016771;28;20423;-78
2022/07/13 08:21:49;;;;;;;4.70;1.23;;;23.80;99.90;;;;;;4999678;28;20420;-79
2022/07/13 08:24:14;;;;;;;1.53;1.00;;;24.10;99.90;;;;;;4998681;28;20450;-78
2022/07/13 08:26:40;;;;;;;3.43;0.90;;;24.30;99.90;;;;;;4998699;28;20212;-78
2022/07/13 08:29:06;;;;;;;1.57;0.97;;;24.50;99.90;;;;;;4998280;28;20279;-78
2022/07/13 08:31:32;;;;;;;0.87;0.80;;;24.70;99.90;;;;;;4999834;28;20245;-79
2022/07/13 08:39:26;;;;;;;1.50;1.10;;;25.50;99.90;;;;;;5017899;28;20566;-78
2022/07/13 08:41:52;;;;;;;2.67;1.30;;;25.80;99.90;;;;;;5012973;28;20510;-78
2022/07/13 08:44:20;;;;;;;1.87;1.03;;;26.00;99.90;;;;;;4991586;28;20456;-78
2022/07/13 08:46:46;;;;;;;3.23;0.90;;;26.20;99.70;;;;;;5009166;28;20309;-78
2022/07/13 08:49:12;;;;;;;3.53;1.23;;;26.30;99.40;;;;;;4974595;28;20483;-78
2022/07/13 08:51:40;;;;;;;1.70;1.07;;;26.40;98.50;;;;;;4974866;28;20439;-78
2022/07/13 08:54:06;;;;;;;2.13;1.20;;;26.50;97.80;;;;;;4991106;28;20531;-78
2022/07/13 08:56:32;;;;;;;5.97;1.30;;;26.70;97.90;;;;;;4991210;28;20450;-78
2022/07/13 08:58:59;;;;;;;3.33;1.10;;;26.70;97.30;;;;;;5008551;28;20208;-78
2022/07/13 09:01:25;;;;;;;2.70;1.30;;;26.70;97.70;;;;;;4992161;28;20432;-78
2022/07/13 09:07:35;;;;;;;3.37;1.20;;;26.80;96.20;;;;;;5021518;28;20475;-78
2022/07/13 09:10:02;;;;;;;4.90;1.20;;;26.80;96.20;;;;;;5038561;28;20416;-78
2022/07/13 09:12:29;;;;;;;1.70;1.17;;;26.90;96.60;;;;;;5038357;28;20511;-78
2022/07/13 09:14:59;;;;;;;3.10;1.10;;;27.00;95.70;;;;;;5002976;28;20451;-78
2022/07/13 09:17:37;;;;;;;3.00;1.23;;;26.90;95.60;;;;;;5022845;28;20466;-78
2022/07/13 09:20:12;;;;;;;3.87;1.37;;;27.00;95.60;;;;;;5021307;28;20443;-78
2022/07/13 09:22:58;;;;;;;2.73;1.10;;;27.30;94.80;;;;;;5014092;28;20427;-78
2022/07/13 09:25:25;;;;;;;5.23;1.77;;;27.50;95.00;;;;;;5012795;28;20424;-78
2022/07/13 09:27:52;;;;;;;8.50;1.20;;;27.60;93.90;;;;;;5013739;28;20558;-78
2022/07/13 09:30:26;;;;;;;3.73;1.20;;;27.90;94.10;;;;;;5016185;28;20424;-78
2022/07/13 09:32:56;;;;;;;1.63;1.30;;;28.20;92.40;;;;;;5014858;28;20578;-78
2022/07/13 09:35:45;;;;;;;1.80;1.10;;;28.40;91.70;;;;;;4996878;28;20926;-78
2022/07/13 09:38:41;;;;;;;1.73;1.00;;;28.50;91.00;;;;;;5015461;28;20470;-78
2022/07/13 09:41:19;;;;;;;1.97;1.37;;;28.50;87.90;;;;;;4989107;28;20556;-78
2022/07/13 09:46:50;;;;;;;2.60;0.90;;;28.80;90.10;;;;;;5015256;28;20434;-78
2022/07/13 09:49:17;;;;;;;3.10;1.23;;;29.20;89.60;;;;;;4997666;28;20443;-78
2022/07/13 09:51:46;;;;;;;1.20;0.80;;;29.50;88.70;;;;;;4998328;28;20424;-79
2022/07/13 09:54:15;;;;;;;2.40;1.20;;;29.80;85.70;;;;;;5015857;28;20420;-80
2022/07/13 09:56:49;;;;;;;2.80;1.23;;;30.20;83.90;;;;;;5016353;28;20437;-79
2022/07/13 09:59:16;;;;;;;1.33;1.07;;;30.40;83.10;;;;;;5016025;28;20495;-78
2022/07/13 10:01:45;;;;;;;7.80;1.10;;;30.60;81.00;;;;;;4983776;28;20431;-78
2022/07/13 10:04:12;;;;;;;1.30;1.20;;;30.70;79.30;;;;;;5017666;28;20436;-79
2022/07/13 10:06:38;;;;;;;3.33;1.40;;;31.00;78.30;;;;;;5018847;28;20443;-78
2022/07/13 10:09:05;;;;;;;2.07;0.90;;;31.30;81.30;;;;;;5000582;28;20474;-79
2022/07/13 10:11:31;;;;;;;1.30;1.10;;;31.30;78.40;;;;;;5017879;28;20420;-79
2022/07/13 10:13:57;;;;;;;2.93;0.90;;;31.60;76.00;;;;;;5019643;28;20498;-78
2022/07/13 10:16:27;;;;;;;1.43;0.93;;;31.70;78.50;;;;;;5014817;28;20447;-78
2022/07/13 10:18:55;;;;;;;3.40;1.07;;;31.80;76.40;;;;;;5013870;28;20416;-78
2022/07/13 10:21:46;;;;;;;1.80;1.13;;;32.00;74.80;;;;;;4997655;28;20443;-78
2022/07/13 10:24:15;;;;;;;3.10;1.17;;;31.90;75.10;;;;;;4999013;28;20474;-78
2022/07/13 10:26:41;;;;;;;4.80;1.00;;;31.50;75.40;;;;;;4994821;28;20464;-78
2022/07/13 10:29:11;;;;;;;1.83;1.10;;;31.80;74.60;;;;;;4994424;28;20570;-78
2022/07/13 10:31:38;;;;;;;5.70;1.10;;;31.90;73.00;;;;;;5012874;28;20506;-78
2022/07/13 10:34:05;;;;;;;2.77;0.90;;;32.10;73.90;;;;;;4994595;28;20575;-78
2022/07/13 10:36:50;;;;;;;4.20;1.07;;;32.30;72.80;;;;;;5011942;28;20945;-78
2022/07/13 10:39:17;;;;;;;1.10;1.00;;;32.40;73.00;;;;;;4994541;28;20586;-78
2022/07/13 10:42:03;;;;;;;2.80;0.97;;;32.60;71.50;;;;;;4994201;28;20925;-78
2022/07/13 10:44:32;;;;;;;2.53;0.70;;;32.60;70.80;;;;;;5012247;28;20412;-78
2022/07/13 10:46:58;;;;;;;2.37;1.10;;;32.90;69.30;;;;;;4978026;28;20448;-78
2022/07/13 10:49:51;;;;;;;1.10;0.80;;;32.90;67.10;;;;;;4978308;28;20458;-78
2022/07/13 10:52:20;;;;;;;0.80;0.73;;;32.80;71.10;;;;;;4978704;28;20426;-78
2022/07/13 10:55:09;;;;;;;2.20;1.20;;;33.00;70.20;;;;;;5011366;28;20416;-78
2022/07/13 10:57:37;;;;;;;4.00;1.30;;;33.30;72.20;;;;;;5011217;28;20448;-78
2022/07/13 11:00:18;;;;;;;0.90;0.90;;;33.50;69.90;;;;;;4993752;28;20436;-78
2022/07/13 11:02:49;;;;;;;2.23;0.97;;;33.70;68.90;;;;;;5010859;28;20431;-78
2022/07/13 11:05:20;;;;;;;1.03;0.93;;;33.60;67.70;;;;;;5010759;28;20420;-78
2022/07/13 11:07:50;;;;;;;4.77;1.10;;;33.50;65.50;;;;;;5014087;28;20841;-78
2022/07/13 11:10:20;;;;;;;4.47;0.90;;;33.60;65.10;;;;;;5014485;28;20775;-78
2022/07/13 11:13:05;;;;;;;2.13;0.80;;;33.50;62.80;;;;;;4996321;28;20428;-78
2022/07/13 11:15:52;;;;;;;1.63;0.90;;;33.70;65.70;;;;;;4980274;28;20477;-78
2022/07/13 11:18:25;;;;;;;0.90;0.73;;;33.90;62.60;;;;;;4995947;28;21029;-78
2022/07/13 11:21:04;;;;;;;3.87;1.20;;;34.10;62.30;;;;;;4976165;28;20494;-77
2022/07/13 11:26:36;;;;;;;4.20;0.83;;;33.90;57.50;;;;;;5010745;28;20462;-78
2022/07/13 11:29:18;;;;;;;1.80;0.97;;;34.00;59.20;;;;;;4995506;28;20468;-79
2022/07/13 11:31:45;;;;;;;1.00;0.80;;;34.00;61.20;;;;;;5013578;28;20917;-79
2022/07/13 11:34:11;;;;;;;1.00;0.90;;;34.10;59.70;;;;;;4980676;28;20455;-78
2022/07/13 11:36:41;;;;;;;3.10;1.17;;;34.00;56.90;;;;;;4997686;28;20879;-78
2022/07/13 11:39:26;;;;;;;1.03;0.93;;;34.10;58.80;;;;;;4996800;28;20483;-78
2022/07/13 11:41:56;;;;;;;1.47;0.70;;;34.30;57.80;;;;;;4996135;28;20435;-78
2022/07/13 11:44:26;;;;;;;3.13;0.80;;;34.20;57.50;;;;;;5015501;28;20416;-78
2022/07/13 11:46:56;;;;;;;0.73;0.70;;;34.40;57.30;;;;;;5014757;28;20503;-79
2022/07/13 11:49:23;;;;;;;1.20;1.00;;;34.30;56.80;;;;;;5015198;28;20474;-78
2022/07/13 11:51:49;;;;;;;0.93;0.83;;;34.30;56.20;;;;;;4996925;28;20420;-78
2022/07/13 11:54:17;;;;;;;2.70;0.97;;;34.50;54.10;;;;;;5015032;28;20420;-79
2022/07/13 11:56:57;;;;;;;2.53;1.10;;;34.50;56.10;;;;;;5015177;28;20523;-79
2022/07/13 11:59:43;;;;;;;1.33;1.23;;;34.60;53.20;;;;;;4996319;28;20442;-79
2022/07/13 12:02:11;;;;;;;2.93;0.80;;;34.80;53.10;;;;;;4996598;28;20459;-79
2022/07/13 12:04:44;;;;;;;5.07;0.70;;;34.80;52.40;;;;;;4996081;28;20443;-78
2022/07/13 12:07:10;;;;;;;3.47;0.87;;;34.60;52.20;;;;;;5014826;28;20499;-79
2022/07/13 12:09:36;;;;;;;1.43;0.93;;;34.40;51.70;;;;;;5020055;28;20424;-79
2022/07/13 12:12:02;;;;;;;2.70;0.80;;;34.20;52.40;;;;;;5001351;28;20189;-78
2022/07/13 12:14:27;;;;;;;1.70;1.00;;;33.90;52.20;;;;;;5019441;28;20177;-79
2022/07/13 12:16:53;;;;;;;1.57;0.77;;;33.70;50.80;;;;;;5020065;28;20446;-79
2022/07/13 12:19:20;;;;;;;2.03;0.80;;;33.60;50.50;;;;;;5002269;28;20193;-79
2022/07/13 12:21:59;;;;;;;2.10;0.80;;;33.50;49.40;;;;;;5001955;28;20432;-79
2022/07/13 12:24:25;;;;;;;2.93;0.67;;;33.50;48.70;;;;;;5002289;28;20482;-79
2022/07/13 12:26:52;;;;;;;2.60;0.93;;;33.40;48.60;;;;;;5001993;28;20444;-79
2022/07/13 12:29:28;;;;;;;1.97;0.60;;;33.20;51.50;;;;;;5019095;28;20464;-79
2022/07/13 12:31:54;;;;;;;0.80;0.80;;;33.30;51.80;;;;;;5018986;28;20422;-79
2022/07/13 12:34:20;;;;;;;2.33;1.00;;;33.10;51.10;;;;;;5001620;28;20424;-79
2022/07/13 12:36:53;;;;;;;0.77;0.60;;;33.10;51.00;;;;;;5011571;28;20201;-79
2022/07/13 12:39:20;;;;;;;2.60;1.30;;;32.80;49.70;;;;;;4990780;28;20464;-78
2022/07/13 12:41:55;;;;;;;1.53;0.90;;;32.80;51.70;;;;;;5008641;28;20420;-78
2022/07/13 12:44:29;;;;;;;4.30;0.80;;;32.60;52.80;;;;;;4991585;28;20502;-79
2022/07/13 12:46:59;;;;;;;1.77;0.73;;;32.70;51.70;;;;;;4991101;28;20467;-78
2022/07/13 12:49:29;;;;;;;1.00;0.60;;;32.60;53.30;;;;;;4975048;28;20452;-78
2022/07/13 12:52:01;;;;;;;2.97;0.90;;;32.40;51.80;;;;;;5008877;28;20628;-79
2022/07/13 12:55:02;;;;;;;2.73;0.70;;;32.30;53.00;;;;;;4991214;28;20964;-78
2022/07/13 12:57:34;;;;;;;0.80;0.67;;;32.30;53.50;;;;;;4909242;29;20890;-79
2022/07/13 13:00:07;;;;;;;3.27;1.17;;;32.20;53.80;;;;;;4975086;28;20424;-79
2022/07/13 13:02:34;;;;;;;0.90;0.60;;;32.10;53.80;;;;;;5009016;28;20423;-79
2022/07/13 13:04:59;;;;;;;1.33;0.60;;;32.00;53.00;;;;;;5008851;28;20416;-79